sensor_id;sensor_type;location;lat;lon;timestamp;temperature;humidity
24049;DHT22;12250;50.956;4.746;2024-03-29T00:02:06;10.00;94.90
24049;DHT22;12250;50.956;4.746;2024-03-29T00:04:32;10.00;94.90
24049;DHT22;12250;50.956;4.746;2024-03-29T00:06:58;10.00;95.00
24049;DHT22;12250;50.956;4.746;2024-03-29T00:09:23;10.00;94.90
24049;DHT22;12250;50.956;4.746;2024-03-29T00:11:49;9.90;95.10
24049;DHT22;12250;50.956;4.746;2024-03-29T00:14:16;9.90;95.20
24049;DHT22;12250;50.956;4.746;2024-03-29T00:16:42;9.90;95.20
24049;DHT22;12250;50.956;4.746;2024-03-29T00:19:07;9.80;95.40
24049;DHT22;12250;50.956;4.746;2024-03-29T00:21:33;9.90;95.30
24049;DHT22;12250;50.956;4.746;2024-03-29T00:24:00;9.90;95.20
24049;DHT22;12250;50.956;4.746;2024-03-29T00:26:25;9.90;95.40
24049;DHT22;12250;50.956;4.746;2024-03-29T00:28:51;9.90;95.30
24049;DHT22;12250;50.956;4.746;2024-03-29T00:31:17;9.90;95.40
24049;DHT22;12250;50.956;4.746;2024-03-29T00:33:43;10.00;95.40
24049;DHT22;12250;50.956;4.746;2024-03-29T00:36:08;10.00;95.60
24049;DHT22;12250;50.956;4.746;2024-03-29T00:38:34;10.00;95.60
24049;DHT22;12250;50.956;4.746;2024-03-29T00:41:00;10.00;95.60
24049;DHT22;12250;50.956;4.746;2024-03-29T00:43:25;10.10;95.30
24049;DHT22;12250;50.956;4.746;2024-03-29T00:45:51;10.10;95.70
24049;DHT22;12250;50.956;4.746;2024-03-29T00:48:17;10.10;95.30
24049;DHT22;12250;50.956;4.746;2024-03-29T00:50:45;10.30;95.20
24049;DHT22;12250;50.956;4.746;2024-03-29T00:53:11;10.40;94.90
24049;DHT22;12250;50.956;4.746;2024-03-29T00:55:36;10.40;94.90
24049;DHT22;12250;50.956;4.746;2024-03-29T00:58:03;10.50;94.80
24049;DHT22;12250;50.956;4.746;2024-03-29T01:00:28;10.50;95.10
24049;DHT22;12250;50.956;4.746;2024-03-29T01:02:54;10.60;94.60
24049;DHT22;12250;50.956;4.746;2024-03-29T01:05:20;10.60;94.40
24049;DHT22;12250;50.956;4.746;2024-03-29T01:07:46;10.50;94.50
24049;DHT22;12250;50.956;4.746;2024-03-29T01:10:12;10.60;94.50
24049;DHT22;12250;50.956;4.746;2024-03-29T01:12:38;10.70;94.40
24049;DHT22;12250;50.956;4.746;2024-03-29T01:15:05;10.70;94.20
24049;DHT22;12250;50.956;4.746;2024-03-29T01:17:31;10.70;94.20
24049;DHT22;12250;50.956;4.746;2024-03-29T01:19:57;10.80;94.20
24049;DHT22;12250;50.956;4.746;2024-03-29T01:22:23;10.80;94.30
24049;DHT22;12250;50.956;4.746;2024-03-29T01:24:48;10.90;94.30
24049;DHT22;12250;50.956;4.746;2024-03-29T01:27:14;10.90;94.40
24049;DHT22;12250;50.956;4.746;2024-03-29T01:29:40;10.90;94.40
24049;DHT22;12250;50.956;4.746;2024-03-29T01:32:06;10.80;94.50
24049;DHT22;12250;50.956;4.746;2024-03-29T01:34:32;10.90;94.50
24049;DHT22;12250;50.956;4.746;2024-03-29T01:36:58;11.00;94.20
24049;DHT22;12250;50.956;4.746;2024-03-29T01:39:24;11.00;94.40
24049;DHT22;12250;50.956;4.746;2024-03-29T01:41:54;11.00;94.30
24049;DHT22;12250;50.956;4.746;2024-03-29T01:44:20;11.00;94.40
24049;DHT22;12250;50.956;4.746;2024-03-29T01:46:46;11.00;94.70
24049;DHT22;12250;50.956;4.746;2024-03-29T01:49:12;11.00;94.60
24049;DHT22;12250;50.956;4.746;2024-03-29T01:51:39;11.10;94.60
24049;DHT22;12250;50.956;4.746;2024-03-29T01:54:09;11.20;94.90
24049;DHT22;12250;50.956;4.746;2024-03-29T01:56:39;11.10;95.00
24049;DHT22;12250;50.956;4.746;2024-03-29T01:59:10;11.10;95.10
24049;DHT22;12250;50.956;4.746;2024-03-29T02:01:38;11.10;95.10
24049;DHT22;12250;50.956;4.746;2024-03-29T02:04:05;11.10;95.70
24049;DHT22;12250;50.956;4.746;2024-03-29T02:06:31;11.00;95.80
24049;DHT22;12250;50.956;4.746;2024-03-29T02:08:57;11.10;96.00
24049;DHT22;12250;50.956;4.746;2024-03-29T02:11:23;11.10;95.80
24049;DHT22;12250;50.956;4.746;2024-03-29T02:13:49;10.90;96.00
24049;DHT22;12250;50.956;4.746;2024-03-29T02:16:16;10.90;96.20
24049;DHT22;12250;50.956;4.746;2024-03-29T02:18:41;10.90;96.40
24049;DHT22;12250;50.956;4.746;2024-03-29T02:21:08;10.90;96.70
24049;DHT22;12250;50.956;4.746;2024-03-29T02:23:37;10.90;96.90
24049;DHT22;12250;50.956;4.746;2024-03-29T02:26:05;10.90;96.80
24049;DHT22;12250;50.956;4.746;2024-03-29T02:28:31;10.90;97.20
24049;DHT22;12250;50.956;4.746;2024-03-29T02:30:56;10.80;97.30
24049;DHT22;12250;50.956;4.746;2024-03-29T02:33:22;10.70;97.70
24049;DHT22;12250;50.956;4.746;2024-03-29T02:35:48;10.70;98.00
24049;DHT22;12250;50.956;4.746;2024-03-29T02:38:14;10.50;98.60
24049;DHT22;12250;50.956;4.746;2024-03-29T02:40:40;10.50;98.90
24049;DHT22;12250;50.956;4.746;2024-03-29T02:43:05;10.40;99.50
24049;DHT22;12250;50.956;4.746;2024-03-29T02:45:32;10.40;99.90
24049;DHT22;12250;50.956;4.746;2024-03-29T02:47:58;10.50;99.90
24049;DHT22;12250;50.956;4.746;2024-03-29T02:50:23;10.40;99.90
24049;DHT22;12250;50.956;4.746;2024-03-29T02:52:49;10.30;99.90
24049;DHT22;12250;50.956;4.746;2024-03-29T02:55:15;10.20;99.90
24049;DHT22;12250;50.956;4.746;2024-03-29T02:57:40;10.10;99.90
24049;DHT22;12250;50.956;4.746;2024-03-29T03:00:07;10.00;99.90
24049;DHT22;12250;50.956;4.746;2024-03-29T03:02:38;9.70;99.90
24049;DHT22;12250;50.956;4.746;2024-03-29T03:05:05;9.60;99.90
24049;DHT22;12250;50.956;4.746;2024-03-29T03:07:32;9.40;99.90
24049;DHT22;12250;50.956;4.746;2024-03-29T03:10:16;9.30;99.90
24049;DHT22;12250;50.956;4.746;2024-03-29T03:13:00;9.10;99.90
24049;DHT22;12250;50.956;4.746;2024-03-29T03:15:25;9.00;99.90
24049;DHT22;12250;50.956;4.746;2024-03-29T03:17:51;8.90;99.90
24049;DHT22;12250;50.956;4.746;2024-03-29T03:20:17;8.90;99.90
24049;DHT22;12250;50.956;4.746;2024-03-29T03:22:42;9.00;99.90
24049;DHT22;12250;50.956;4.746;2024-03-29T03:25:08;8.90;99.90
24049;DHT22;12250;50.956;4.746;2024-03-29T03:27:34;8.80;99.90
24049;DHT22;12250;50.956;4.746;2024-03-29T03:30:00;8.80;99.90
24049;DHT22;12250;50.956;4.746;2024-03-29T03:32:26;8.70;99.90
24049;DHT22;12250;50.956;4.746;2024-03-29T03:34:51;8.70;99.90
24049;DHT22;12250;50.956;4.746;2024-03-29T03:37:17;8.70;99.90
24049;DHT22;12250;50.956;4.746;2024-03-29T03:39:42;8.60;99.90
24049;DHT22;12250;50.956;4.746;2024-03-29T03:42:08;8.60;99.90
24049;DHT22;12250;50.956;4.746;2024-03-29T03:44:34;8.60;99.90
24049;DHT22;12250;50.956;4.746;2024-03-29T03:47:00;8.60;99.90
24049;DHT22;12250;50.956;4.746;2024-03-29T03:49:26;8.60;99.90
24049;DHT22;12250;50.956;4.746;2024-03-29T03:51:52;8.60;99.90
24049;DHT22;12250;50.956;4.746;2024-03-29T03:54:18;8.60;99.90
24049;DHT22;12250;50.956;4.746;2024-03-29T03:56:43;8.60;99.90
24049;DHT22;12250;50.956;4.746;2024-03-29T03:59:09;8.50;99.90
24049;DHT22;12250;50.956;4.746;2024-03-29T04:01:35;8.40;99.90
24049;DHT22;12250;50.956;4.746;2024-03-29T04:04:01;8.50;99.90
24049;DHT22;12250;50.956;4.746;2024-03-29T04:06:26;8.50;99.90
24049;DHT22;12250;50.956;4.746;2024-03-29T04:08:52;8.40;99.90
24049;DHT22;12250;50.956;4.746;2024-03-29T04:11:18;8.40;99.90
24049;DHT22;12250;50.956;4.746;2024-03-29T04:13:45;8.40;99.90
24049;DHT22;12250;50.956;4.746;2024-03-29T04:16:11;8.40;99.90
24049;DHT22;12250;50.956;4.746;2024-03-29T04:18:37;8.30;99.90
24049;DHT22;12250;50.956;4.746;2024-03-29T04:21:03;8.30;99.90
24049;DHT22;12250;50.956;4.746;2024-03-29T04:23:30;8.30;99.90
24049;DHT22;12250;50.956;4.746;2024-03-29T04:25:57;8.30;99.90
24049;DHT22;12250;50.956;4.746;2024-03-29T04:28:23;8.30;99.90
24049;DHT22;12250;50.956;4.746;2024-03-29T04:30:56;8.30;99.90
24049;DHT22;12250;50.956;4.746;2024-03-29T04:33:23;8.30;99.90
24049;DHT22;12250;50.956;4.746;2024-03-29T04:36:00;8.30;99.90
24049;DHT22;12250;50.956;4.746;2024-03-29T04:38:26;8.40;99.90
24049;DHT22;12250;50.956;4.746;2024-03-29T04:40:54;8.40;99.90
24049;DHT22;12250;50.956;4.746;2024-03-29T04:43:23;8.30;99.90
24049;DHT22;12250;50.956;4.746;2024-03-29T04:45:50;8.20;99.90
24049;DHT22;12250;50.956;4.746;2024-03-29T04:48:15;8.20;99.90
24049;DHT22;12250;50.956;4.746;2024-03-29T04:50:41;8.30;99.90
24049;DHT22;12250;50.956;4.746;2024-03-29T04:53:08;8.40;99.90
24049;DHT22;12250;50.956;4.746;2024-03-29T04:55:35;8.40;99.90
24049;DHT22;12250;50.956;4.746;2024-03-29T04:58:02;8.40;99.90
24049;DHT22;12250;50.956;4.746;2024-03-29T05:00:27;8.40;99.90
24049;DHT22;12250;50.956;4.746;2024-03-29T05:02:53;8.40;99.90
24049;DHT22;12250;50.956;4.746;2024-03-29T05:05:19;8.40;99.90
24049;DHT22;12250;50.956;4.746;2024-03-29T05:07:45;8.50;99.90
24049;DHT22;12250;50.956;4.746;2024-03-29T05:10:10;8.50;99.90
24049;DHT22;12250;50.956;4.746;2024-03-29T05:12:37;8.50;99.90
24049;DHT22;12250;50.956;4.746;2024-03-29T05:15:03;8.50;99.90
24049;DHT22;12250;50.956;4.746;2024-03-29T05:17:28;8.50;99.90
24049;DHT22;12250;50.956;4.746;2024-03-29T05:19:54;8.50;99.90
24049;DHT22;12250;50.956;4.746;2024-03-29T05:22:21;8.40;99.90
24049;DHT22;12250;50.956;4.746;2024-03-29T05:24:47;8.50;99.90
24049;DHT22;12250;50.956;4.746;2024-03-29T05:27:13;8.50;99.90
24049;DHT22;12250;50.956;4.746;2024-03-29T05:29:39;8.50;99.90
24049;DHT22;12250;50.956;4.746;2024-03-29T05:32:07;8.50;99.90
24049;DHT22;12250;50.956;4.746;2024-03-29T05:34:33;8.50;99.90
24049;DHT22;12250;50.956;4.746;2024-03-29T05:36:59;8.50;99.90
24049;DHT22;12250;50.956;4.746;2024-03-29T05:39:24;8.60;99.90
24049;DHT22;12250;50.956;4.746;2024-03-29T05:41:50;8.60;99.90
24049;DHT22;12250;50.956;4.746;2024-03-29T05:44:16;8.60;99.90
24049;DHT22;12250;50.956;4.746;2024-03-29T05:46:42;8.60;99.90
24049;DHT22;12250;50.956;4.746;2024-03-29T05:49:08;8.60;99.90
24049;DHT22;12250;50.956;4.746;2024-03-29T05:51:34;8.60;99.90
24049;DHT22;12250;50.956;4.746;2024-03-29T05:54:00;8.60;99.90
24049;DHT22;12250;50.956;4.746;2024-03-29T05:56:29;8.70;99.90
24049;DHT22;12250;50.956;4.746;2024-03-29T05:58:55;8.70;99.90
24049;DHT22;12250;50.956;4.746;2024-03-29T06:01:20;8.70;99.90
24049;DHT22;12250;50.956;4.746;2024-03-29T06:03:47;8.70;99.90
24049;DHT22;12250;50.956;4.746;2024-03-29T06:06:12;8.70;99.90
24049;DHT22;12250;50.956;4.746;2024-03-29T06:08:43;8.70;99.90
24049;DHT22;12250;50.956;4.746;2024-03-29T06:11:09;8.70;99.90
24049;DHT22;12250;50.956;4.746;2024-03-29T06:13:34;8.60;99.90
24049;DHT22;12250;50.956;4.746;2024-03-29T06:16:24;8.70;99.90
24049;DHT22;12250;50.956;4.746;2024-03-29T06:19:08;8.70;99.90
24049;DHT22;12250;50.956;4.746;2024-03-29T06:21:34;8.80;99.90
24049;DHT22;12250;50.956;4.746;2024-03-29T06:24:10;8.80;99.90
24049;DHT22;12250;50.956;4.746;2024-03-29T06:26:40;8.80;99.90
24049;DHT22;12250;50.956;4.746;2024-03-29T06:29:07;8.90;99.90
24049;DHT22;12250;50.956;4.746;2024-03-29T06:31:35;8.90;99.90
24049;DHT22;12250;50.956;4.746;2024-03-29T06:34:01;9.00;99.90
24049;DHT22;12250;50.956;4.746;2024-03-29T06:36:26;9.00;99.90
24049;DHT22;12250;50.956;4.746;2024-03-29T06:38:55;9.10;99.90
24049;DHT22;12250;50.956;4.746;2024-03-29T06:41:21;9.20;99.90
24049;DHT22;12250;50.956;4.746;2024-03-29T06:43:47;9.30;99.90
24049;DHT22;12250;50.956;4.746;2024-03-29T06:46:14;9.30;99.90
24049;DHT22;12250;50.956;4.746;2024-03-29T06:48:40;9.40;99.90
24049;DHT22;12250;50.956;4.746;2024-03-29T06:51:06;9.30;99.90
24049;DHT22;12250;50.956;4.746;2024-03-29T06:53:31;9.30;99.90
24049;DHT22;12250;50.956;4.746;2024-03-29T06:56:00;9.20;99.90
24049;DHT22;12250;50.956;4.746;2024-03-29T06:58:26;9.30;99.90
24049;DHT22;12250;50.956;4.746;2024-03-29T07:00:52;9.20;99.90
24049;DHT22;12250;50.956;4.746;2024-03-29T07:03:18;9.30;99.90
24049;DHT22;12250;50.956;4.746;2024-03-29T07:05:47;9.40;99.90
24049;DHT22;12250;50.956;4.746;2024-03-29T07:08:13;9.50;99.90
24049;DHT22;12250;50.956;4.746;2024-03-29T07:10:39;9.60;99.90
24049;DHT22;12250;50.956;4.746;2024-03-29T07:13:06;9.80;99.90
24049;DHT22;12250;50.956;4.746;2024-03-29T07:15:32;10.10;99.90
24049;DHT22;12250;50.956;4.746;2024-03-29T07:17:57;10.50;99.90
24049;DHT22;12250;50.956;4.746;2024-03-29T07:20:25;10.60;99.90
24049;DHT22;12250;50.956;4.746;2024-03-29T07:22:51;10.60;99.90
24049;DHT22;12250;50.956;4.746;2024-03-29T07:25:17;10.70;99.90
24049;DHT22;12250;50.956;4.746;2024-03-29T07:27:42;10.70;99.90
24049;DHT22;12250;50.956;4.746;2024-03-29T07:30:09;10.50;99.90
24049;DHT22;12250;50.956;4.746;2024-03-29T07:32:36;10.50;99.90
24049;DHT22;12250;50.956;4.746;2024-03-29T07:35:02;10.60;99.90
24049;DHT22;12250;50.956;4.746;2024-03-29T07:37:30;10.70;99.90
24049;DHT22;12250;50.956;4.746;2024-03-29T07:39:56;10.70;99.90
24049;DHT22;12250;50.956;4.746;2024-03-29T07:42:21;10.80;99.90
24049;DHT22;12250;50.956;4.746;2024-03-29T07:44:47;10.70;99.90
24049;DHT22;12250;50.956;4.746;2024-03-29T07:47:13;10.70;99.90
24049;DHT22;12250;50.956;4.746;2024-03-29T07:49:40;10.80;99.90
24049;DHT22;12250;50.956;4.746;2024-03-29T07:52:06;10.80;99.90
24049;DHT22;12250;50.956;4.746;2024-03-29T07:54:34;10.70;99.90
24049;DHT22;12250;50.956;4.746;2024-03-29T07:57:00;10.80;99.90
24049;DHT22;12250;50.956;4.746;2024-03-29T07:59:26;10.80;99.90
24049;DHT22;12250;50.956;4.746;2024-03-29T08:01:52;10.90;99.90
24049;DHT22;12250;50.956;4.746;2024-03-29T08:04:20;11.10;99.90
24049;DHT22;12250;50.956;4.746;2024-03-29T08:06:45;11.10;99.90
24049;DHT22;12250;50.956;4.746;2024-03-29T08:09:11;11.10;99.90
24049;DHT22;12250;50.956;4.746;2024-03-29T08:11:39;11.20;99.90
24049;DHT22;12250;50.956;4.746;2024-03-29T08:14:05;11.20;99.90
24049;DHT22;12250;50.956;4.746;2024-03-29T08:16:31;11.40;99.90
24049;DHT22;12250;50.956;4.746;2024-03-29T08:18:57;11.60;99.90
24049;DHT22;12250;50.956;4.746;2024-03-29T08:21:23;11.60;99.90
24049;DHT22;12250;50.956;4.746;2024-03-29T08:23:48;11.50;99.90
24049;DHT22;12250;50.956;4.746;2024-03-29T08:26:16;11.60;99.90
24049;DHT22;12250;50.956;4.746;2024-03-29T08:28:44;11.80;99.90
24049;DHT22;12250;50.956;4.746;2024-03-29T08:31:10;12.00;99.90
24049;DHT22;12250;50.956;4.746;2024-03-29T08:33:36;12.10;99.90
24049;DHT22;12250;50.956;4.746;2024-03-29T08:36:06;12.20;99.90
24049;DHT22;12250;50.956;4.746;2024-03-29T08:38:32;12.10;99.90
24049;DHT22;12250;50.956;4.746;2024-03-29T08:40:57;12.00;99.90
24049;DHT22;12250;50.956;4.746;2024-03-29T08:43:23;12.20;99.90
24049;DHT22;12250;50.956;4.746;2024-03-29T08:45:49;12.50;99.90
24049;DHT22;12250;50.956;4.746;2024-03-29T08:48:14;12.50;99.90
24049;DHT22;12250;50.956;4.746;2024-03-29T08:50:40;12.60;99.90
24049;DHT22;12250;50.956;4.746;2024-03-29T08:53:06;13.00;99.90
24049;DHT22;12250;50.956;4.746;2024-03-29T08:55:33;13.30;99.90
24049;DHT22;12250;50.956;4.746;2024-03-29T08:57:59;13.60;99.90
24049;DHT22;12250;50.956;4.746;2024-03-29T09:00:26;14.20;99.90
24049;DHT22;12250;50.956;4.746;2024-03-29T09:02:51;14.70;99.90
24049;DHT22;12250;50.956;4.746;2024-03-29T09:05:17;15.10;99.90
24049;DHT22;12250;50.956;4.746;2024-03-29T09:07:43;15.30;99.90
24049;DHT22;12250;50.956;4.746;2024-03-29T09:10:09;15.50;99.90
24049;DHT22;12250;50.956;4.746;2024-03-29T09:12:34;15.90;99.90
24049;DHT22;12250;50.956;4.746;2024-03-29T09:15:00;17.00;99.90
24049;DHT22;12250;50.956;4.746;2024-03-29T09:17:26;17.90;99.90
24049;DHT22;12250;50.956;4.746;2024-03-29T09:19:52;19.10;99.90
24049;DHT22;12250;50.956;4.746;2024-03-29T09:22:18;20.00;99.90
24049;DHT22;12250;50.956;4.746;2024-03-29T09:24:45;21.00;99.90
24049;DHT22;12250;50.956;4.746;2024-03-29T09:27:10;22.70;98.60
24049;DHT22;12250;50.956;4.746;2024-03-29T09:29:36;23.60;96.40
24049;DHT22;12250;50.956;4.746;2024-03-29T09:32:02;23.20;93.90
24049;DHT22;12250;50.956;4.746;2024-03-29T09:34:28;22.40;93.40
24049;DHT22;12250;50.956;4.746;2024-03-29T09:36:54;21.60;94.90
24049;DHT22;12250;50.956;4.746;2024-03-29T09:39:19;21.20;95.60
24049;DHT22;12250;50.956;4.746;2024-03-29T09:41:45;21.30;95.30
24049;DHT22;12250;50.956;4.746;2024-03-29T09:44:11;21.20;94.70
24049;DHT22;12250;50.956;4.746;2024-03-29T09:46:37;21.10;94.00
24049;DHT22;12250;50.956;4.746;2024-03-29T09:49:07;21.80;93.60
24049;DHT22;12250;50.956;4.746;2024-03-29T09:51:34;21.80;93.10
24049;DHT22;12250;50.956;4.746;2024-03-29T09:54:01;21.40;92.40
24049;DHT22;12250;50.956;4.746;2024-03-29T09:56:30;21.10;93.70
24049;DHT22;12250;50.956;4.746;2024-03-29T09:58:55;19.50;94.50
24049;DHT22;12250;50.956;4.746;2024-03-29T10:01:22;19.60;95.60
24049;DHT22;12250;50.956;4.746;2024-03-29T10:03:49;19.70;95.00
24049;DHT22;12250;50.956;4.746;2024-03-29T10:06:23;19.90;93.20
24049;DHT22;12250;50.956;4.746;2024-03-29T10:08:49;20.60;93.60
24049;DHT22;12250;50.956;4.746;2024-03-29T10:11:15;22.00;92.60
24049;DHT22;12250;50.956;4.746;2024-03-29T10:13:45;23.50;88.70
24049;DHT22;12250;50.956;4.746;2024-03-29T10:16:11;24.60;86.10
24049;DHT22;12250;50.956;4.746;2024-03-29T10:18:40;23.50;82.80
24049;DHT22;12250;50.956;4.746;2024-03-29T10:21:07;23.10;84.10
24049;DHT22;12250;50.956;4.746;2024-03-29T10:23:34;23.70;87.50
24049;DHT22;12250;50.956;4.746;2024-03-29T10:26:03;24.60;88.00
24049;DHT22;12250;50.956;4.746;2024-03-29T10:28:36;26.10;77.80
24049;DHT22;12250;50.956;4.746;2024-03-29T10:31:03;25.00;79.10
24049;DHT22;12250;50.956;4.746;2024-03-29T10:33:32;24.90;79.60
24049;DHT22;12250;50.956;4.746;2024-03-29T10:36:02;23.80;81.10
24049;DHT22;12250;50.956;4.746;2024-03-29T10:38:31;23.90;80.10
24049;DHT22;12250;50.956;4.746;2024-03-29T10:40:57;23.30;80.40
24049;DHT22;12250;50.956;4.746;2024-03-29T10:43:24;22.60;84.20
24049;DHT22;12250;50.956;4.746;2024-03-29T10:45:50;22.00;84.30
24049;DHT22;12250;50.956;4.746;2024-03-29T10:48:21;21.20;87.00
24049;DHT22;12250;50.956;4.746;2024-03-29T10:50:48;21.20;87.90
24049;DHT22;12250;50.956;4.746;2024-03-29T10:53:16;21.30;88.30
24049;DHT22;12250;50.956;4.746;2024-03-29T10:55:42;21.50;87.20
24049;DHT22;12250;50.956;4.746;2024-03-29T10:58:11;20.90;89.30
24049;DHT22;12250;50.956;4.746;2024-03-29T11:00:47;20.30;90.00
24049;DHT22;12250;50.956;4.746;2024-03-29T11:03:20;19.80;90.80
24049;DHT22;12250;50.956;4.746;2024-03-29T11:05:50;19.20;91.00
24049;DHT22;12250;50.956;4.746;2024-03-29T11:08:23;18.90;92.00
24049;DHT22;12250;50.956;4.746;2024-03-29T11:10:54;18.50;92.50
24049;DHT22;12250;50.956;4.746;2024-03-29T11:13:35;18.30;93.00
24049;DHT22;12250;50.956;4.746;2024-03-29T11:16:02;18.10;92.70
24049;DHT22;12250;50.956;4.746;2024-03-29T11:18:29;17.90;92.90
24049;DHT22;12250;50.956;4.746;2024-03-29T11:20:57;17.90;92.90
24049;DHT22;12250;50.956;4.746;2024-03-29T11:23:25;18.30;93.20
24049;DHT22;12250;50.956;4.746;2024-03-29T11:25:52;19.20;92.90
24049;DHT22;12250;50.956;4.746;2024-03-29T11:28:32;19.50;91.30
24049;DHT22;12250;50.956;4.746;2024-03-29T11:31:06;19.60;90.70
24049;DHT22;12250;50.956;4.746;2024-03-29T11:36:15;19.60;91.20
24049;DHT22;12250;50.956;4.746;2024-03-29T11:38:45;19.50;91.10
24049;DHT22;12250;50.956;4.746;2024-03-29T11:41:21;19.40;91.40
24049;DHT22;12250;50.956;4.746;2024-03-29T11:43:52;19.50;91.60
24049;DHT22;12250;50.956;4.746;2024-03-29T11:46:18;19.50;91.00
24049;DHT22;12250;50.956;4.746;2024-03-29T11:48:45;19.50;90.70
24049;DHT22;12250;50.956;4.746;2024-03-29T11:51:20;19.10;91.00
24049;DHT22;12250;50.956;4.746;2024-03-29T11:53:48;19.20;91.70
24049;DHT22;12250;50.956;4.746;2024-03-29T11:56:17;19.40;90.80
24049;DHT22;12250;50.956;4.746;2024-03-29T11:58:43;19.60;92.40
24049;DHT22;12250;50.956;4.746;2024-03-29T12:01:09;19.60;90.90
24049;DHT22;12250;50.956;4.746;2024-03-29T12:03:38;19.60;91.40
24049;DHT22;12250;50.956;4.746;2024-03-29T12:06:05;19.70;90.90
24049;DHT22;12250;50.956;4.746;2024-03-29T12:08:34;19.90;90.60
24049;DHT22;12250;50.956;4.746;2024-03-29T12:11:02;19.90;90.80
24049;DHT22;12250;50.956;4.746;2024-03-29T12:13:28;20.10;91.40
24049;DHT22;12250;50.956;4.746;2024-03-29T12:15:55;20.30;91.80
24049;DHT22;12250;50.956;4.746;2024-03-29T12:18:22;20.40;90.50
24049;DHT22;12250;50.956;4.746;2024-03-29T12:20:48;20.40;92.10
24049;DHT22;12250;50.956;4.746;2024-03-29T12:23:25;20.60;91.10
24049;DHT22;12250;50.956;4.746;2024-03-29T12:25:55;20.70;88.00
24049;DHT22;12250;50.956;4.746;2024-03-29T12:28:26;20.60;86.80
24049;DHT22;12250;50.956;4.746;2024-03-29T12:30:53;20.90;88.30
24049;DHT22;12250;50.956;4.746;2024-03-29T12:33:21;20.90;86.80
24049;DHT22;12250;50.956;4.746;2024-03-29T12:35:50;20.70;86.20
24049;DHT22;12250;50.956;4.746;2024-03-29T12:38:19;20.70;86.70
24049;DHT22;12250;50.956;4.746;2024-03-29T12:40:46;20.90;88.40
24049;DHT22;12250;50.956;4.746;2024-03-29T12:43:20;21.20;87.30
24049;DHT22;12250;50.956;4.746;2024-03-29T12:45:48;21.30;85.50
24049;DHT22;12250;50.956;4.746;2024-03-29T12:48:20;21.40;87.00
24049;DHT22;12250;50.956;4.746;2024-03-29T12:50:46;21.30;85.50
24049;DHT22;12250;50.956;4.746;2024-03-29T12:53:15;21.40;84.50
24049;DHT22;12250;50.956;4.746;2024-03-29T12:55:42;21.50;85.50
24049;DHT22;12250;50.956;4.746;2024-03-29T12:58:12;21.60;83.20
24049;DHT22;12250;50.956;4.746;2024-03-29T13:00:39;21.40;86.40
24049;DHT22;12250;50.956;4.746;2024-03-29T13:03:05;21.20;81.30
24049;DHT22;12250;50.956;4.746;2024-03-29T13:05:31;20.40;83.50
24049;DHT22;12250;50.956;4.746;2024-03-29T13:08:04;20.50;87.10
24049;DHT22;12250;50.956;4.746;2024-03-29T13:10:31;20.50;84.90
24049;DHT22;12250;50.956;4.746;2024-03-29T13:12:57;20.40;85.70
24049;DHT22;12250;50.956;4.746;2024-03-29T13:15:24;20.50;87.10
24049;DHT22;12250;50.956;4.746;2024-03-29T13:17:51;20.80;85.80
24049;DHT22;12250;50.956;4.746;2024-03-29T13:20:18;20.40;80.60
24049;DHT22;12250;50.956;4.746;2024-03-29T13:22:45;20.00;85.30
24049;DHT22;12250;50.956;4.746;2024-03-29T13:25:19;19.90;83.80
24049;DHT22;12250;50.956;4.746;2024-03-29T13:27:49;19.90;84.70
24049;DHT22;12250;50.956;4.746;2024-03-29T13:30:19;20.10;85.60
24049;DHT22;12250;50.956;4.746;2024-03-29T13:32:45;20.30;85.70
24049;DHT22;12250;50.956;4.746;2024-03-29T13:35:11;20.20;84.30
24049;DHT22;12250;50.956;4.746;2024-03-29T13:37:42;20.10;82.90
24049;DHT22;12250;50.956;4.746;2024-03-29T13:40:11;20.00;85.10
24049;DHT22;12250;50.956;4.746;2024-03-29T13:42:38;20.00;85.70
24049;DHT22;12250;50.956;4.746;2024-03-29T13:45:04;20.00;85.80
24049;DHT22;12250;50.956;4.746;2024-03-29T13:47:39;20.10;87.30
24049;DHT22;12250;50.956;4.746;2024-03-29T13:50:09;20.10;87.00
24049;DHT22;12250;50.956;4.746;2024-03-29T13:52:35;19.80;86.20
24049;DHT22;12250;50.956;4.746;2024-03-29T13:55:02;19.60;87.50
24049;DHT22;12250;50.956;4.746;2024-03-29T13:57:29;19.60;86.70
24049;DHT22;12250;50.956;4.746;2024-03-29T13:59:55;19.70;86.90
24049;DHT22;12250;50.956;4.746;2024-03-29T14:02:20;19.50;85.30
24049;DHT22;12250;50.956;4.746;2024-03-29T14:04:48;19.40;88.60
24049;DHT22;12250;50.956;4.746;2024-03-29T14:07:15;19.70;89.20
24049;DHT22;12250;50.956;4.746;2024-03-29T14:09:43;19.90;87.50
24049;DHT22;12250;50.956;4.746;2024-03-29T14:12:10;19.90;86.30
24049;DHT22;12250;50.956;4.746;2024-03-29T14:14:36;19.80;86.90
24049;DHT22;12250;50.956;4.746;2024-03-29T14:17:02;19.60;84.70
24049;DHT22;12250;50.956;4.746;2024-03-29T14:19:35;19.50;85.10
24049;DHT22;12250;50.956;4.746;2024-03-29T14:22:05;19.30;85.60
24049;DHT22;12250;50.956;4.746;2024-03-29T14:24:31;19.50;86.30
24049;DHT22;12250;50.956;4.746;2024-03-29T14:27:03;19.60;86.20
24049;DHT22;12250;50.956;4.746;2024-03-29T14:29:33;19.60;86.00
24049;DHT22;12250;50.956;4.746;2024-03-29T14:31:59;19.60;85.10
24049;DHT22;12250;50.956;4.746;2024-03-29T14:34:26;19.60;85.50
24049;DHT22;12250;50.956;4.746;2024-03-29T14:36:53;19.60;87.20
24049;DHT22;12250;50.956;4.746;2024-03-29T14:39:19;19.50;85.40
24049;DHT22;12250;50.956;4.746;2024-03-29T14:41:49;19.40;86.10
24049;DHT22;12250;50.956;4.746;2024-03-29T14:44:17;19.40;87.60
24049;DHT22;12250;50.956;4.746;2024-03-29T14:46:43;19.40;87.10
24049;DHT22;12250;50.956;4.746;2024-03-29T14:49:09;19.20;86.00
24049;DHT22;12250;50.956;4.746;2024-03-29T14:51:37;19.10;88.40
24049;DHT22;12250;50.956;4.746;2024-03-29T14:54:03;18.80;87.70
24049;DHT22;12250;50.956;4.746;2024-03-29T14:56:32;19.00;88.00
24049;DHT22;12250;50.956;4.746;2024-03-29T14:59:06;19.10;88.60
24049;DHT22;12250;50.956;4.746;2024-03-29T15:01:36;19.00;88.60
24049;DHT22;12250;50.956;4.746;2024-03-29T15:04:02;19.00;89.00
24049;DHT22;12250;50.956;4.746;2024-03-29T15:06:28;18.90;89.80
24049;DHT22;12250;50.956;4.746;2024-03-29T15:08:55;18.90;90.70
24049;DHT22;12250;50.956;4.746;2024-03-29T15:11:24;19.10;91.10
24049;DHT22;12250;50.956;4.746;2024-03-29T15:13:50;19.30;90.00
24049;DHT22;12250;50.956;4.746;2024-03-29T15:16:16;19.10;87.30
24049;DHT22;12250;50.956;4.746;2024-03-29T15:18:42;18.70;90.10
24049;DHT22;12250;50.956;4.746;2024-03-29T15:21:08;18.60;90.60
24049;DHT22;12250;50.956;4.746;2024-03-29T15:23:35;18.70;90.90
24049;DHT22;12250;50.956;4.746;2024-03-29T15:26:02;18.80;90.50
24049;DHT22;12250;50.956;4.746;2024-03-29T15:28:29;18.70;89.10
24049;DHT22;12250;50.956;4.746;2024-03-29T15:31:16;18.60;88.00
24049;DHT22;12250;50.956;4.746;2024-03-29T15:33:42;18.00;90.30
24049;DHT22;12250;50.956;4.746;2024-03-29T15:36:08;18.00;91.30
24049;DHT22;12250;50.956;4.746;2024-03-29T15:38:34;18.20;90.90